sensor_id;sensor_type;location;lat;lon;timestamp;temperature;humidity
68701;DHT22;55682;51.114;5.882;2024-03-23T00:54:13;10.14;71.89
68701;DHT22;55682;51.114;5.882;2024-03-23T00:56:39;10.15;72.14
68701;DHT22;55682;51.114;5.882;2024-03-23T00:59:05;10.19;71.97
68701;DHT22;55682;51.114;5.882;2024-03-23T01:01:30;10.21;72.00
68701;DHT22;55682;51.114;5.882;2024-03-23T01:03:56;10.16;72.29
68701;DHT22;55682;51.114;5.882;2024-03-23T01:06:21;10.19;72.47
68701;DHT22;55682;51.114;5.882;2024-03-23T01:08:47;10.19;72.38
68701;DHT22;55682;51.114;5.882;2024-03-23T01:11:13;10.22;72.35
68701;DHT22;55682;51.114;5.882;2024-03-23T01:13:38;10.24;72.38
68701;DHT22;55682;51.114;5.882;2024-03-23T01:16:04;10.27;72.29
68701;DHT22;55682;51.114;5.882;2024-03-23T01:18:30;10.26;72.32
68701;DHT22;55682;51.114;5.882;2024-03-23T01:20:55;10.21;72.37
68701;DHT22;55682;51.114;5.882;2024-03-23T01:23:21;10.16;72.70
68701;DHT22;55682;51.114;5.882;2024-03-23T01:25:55;10.08;73.25
68701;DHT22;55682;51.114;5.882;2024-03-23T01:28:22;10.05;73.29
68701;DHT22;55682;51.114;5.882;2024-03-23T01:30:48;9.98;73.54
68701;DHT22;55682;51.114;5.882;2024-03-23T01:33:14;9.94;74.04
68701;DHT22;55682;51.114;5.882;2024-03-23T01:35:39;9.91;74.15
68701;DHT22;55682;51.114;5.882;2024-03-23T01:38:05;9.84;74.60
68701;DHT22;55682;51.114;5.882;2024-03-23T01:40:31;9.78;74.99
68701;DHT22;55682;51.114;5.882;2024-03-23T01:42:59;9.77;75.17
68701;DHT22;55682;51.114;5.882;2024-03-23T01:45:27;9.78;75.25
68701;DHT22;55682;51.114;5.882;2024-03-23T01:47:53;9.75;75.30
68701;DHT22;55682;51.114;5.882;2024-03-23T01:50:19;9.77;75.07
68701;DHT22;55682;51.114;5.882;2024-03-23T01:52:46;9.68;75.35
68701;DHT22;55682;51.114;5.882;2024-03-23T01:55:12;9.67;75.44
68701;DHT22;55682;51.114;5.882;2024-03-23T01:57:38;9.61;75.33
68701;DHT22;55682;51.114;5.882;2024-03-23T02:00:04;9.57;75.95
68701;DHT22;55682;51.114;5.882;2024-03-23T02:02:47;9.53;76.53
68701;DHT22;55682;51.114;5.882;2024-03-23T02:05:13;9.50;76.82
68701;DHT22;55682;51.114;5.882;2024-03-23T02:07:40;9.46;77.33
68701;DHT22;55682;51.114;5.882;2024-03-23T02:10:07;9.36;77.66
68701;DHT22;55682;51.114;5.882;2024-03-23T02:12:33;9.29;78.10
68701;DHT22;55682;51.114;5.882;2024-03-23T02:14:59;9.27;78.45
68701;DHT22;55682;51.114;5.882;2024-03-23T02:17:25;9.30;77.85
68701;DHT22;55682;51.114;5.882;2024-03-23T02:19:51;9.27;77.73
68701;DHT22;55682;51.114;5.882;2024-03-23T02:22:16;9.32;77.69
68701;DHT22;55682;51.114;5.882;2024-03-23T02:24:43;9.23;77.70
68701;DHT22;55682;51.114;5.882;2024-03-23T02:27:08;9.23;77.68
68701;DHT22;55682;51.114;5.882;2024-03-23T02:29:34;9.18;78.25
68701;DHT22;55682;51.114;5.882;2024-03-23T02:32:00;9.15;78.24
68701;DHT22;55682;51.114;5.882;2024-03-23T02:34:26;9.14;78.31
68701;DHT22;55682;51.114;5.882;2024-03-23T02:36:52;9.16;78.42
68701;DHT22;55682;51.114;5.882;2024-03-23T02:39:18;9.06;78.85
68701;DHT22;55682;51.114;5.882;2024-03-23T02:41:43;9.04;78.75
68701;DHT22;55682;51.114;5.882;2024-03-23T02:44:09;9.05;79.01
68701;DHT22;55682;51.114;5.882;2024-03-23T02:46:38;9.04;79.02
68701;DHT22;55682;51.114;5.882;2024-03-23T02:49:03;9.04;79.14
68701;DHT22;55682;51.114;5.882;2024-03-23T02:51:30;9.02;79.55
68701;DHT22;55682;51.114;5.882;2024-03-23T02:53:56;9.01;80.00
68701;DHT22;55682;51.114;5.882;2024-03-23T02:56:22;9.01;80.28
68701;DHT22;55682;51.114;5.882;2024-03-23T02:58:47;9.06;80.36
68701;DHT22;55682;51.114;5.882;2024-03-23T03:01:13;9.04;80.61
68701;DHT22;55682;51.114;5.882;2024-03-23T03:03:38;9.05;80.72
68701;DHT22;55682;51.114;5.882;2024-03-23T03:06:04;9.07;80.70
68701;DHT22;55682;51.114;5.882;2024-03-23T03:08:30;9.12;80.75
68701;DHT22;55682;51.114;5.882;2024-03-23T03:10:55;9.17;80.59
68701;DHT22;55682;51.114;5.882;2024-03-23T03:13:21;9.18;80.72
68701;DHT22;55682;51.114;5.882;2024-03-23T03:15:47;9.23;80.42
68701;DHT22;55682;51.114;5.882;2024-03-23T03:18:12;9.25;80.19
68701;DHT22;55682;51.114;5.882;2024-03-23T03:20:38;9.19;80.14
68701;DHT22;55682;51.114;5.882;2024-03-23T03:23:05;9.17;80.13
68701;DHT22;55682;51.114;5.882;2024-03-23T03:25:31;9.11;80.07
68701;DHT22;55682;51.114;5.882;2024-03-23T03:27:57;9.12;80.17
68701;DHT22;55682;51.114;5.882;2024-03-23T03:30:23;9.14;80.03
68701;DHT22;55682;51.114;5.882;2024-03-23T03:32:49;9.16;80.11
68701;DHT22;55682;51.114;5.882;2024-03-23T03:35:15;9.17;80.00
68701;DHT22;55682;51.114;5.882;2024-03-23T03:37:41;9.17;79.97
68701;DHT22;55682;51.114;5.882;2024-03-23T03:40:07;9.16;79.78
68701;DHT22;55682;51.114;5.882;2024-03-23T03:42:34;9.11;79.88
68701;DHT22;55682;51.114;5.882;2024-03-23T03:45:00;9.11;80.02
68701;DHT22;55682;51.114;5.882;2024-03-23T03:47:26;9.06;80.17
68701;DHT22;55682;51.114;5.882;2024-03-23T03:49:52;9.04;80.26
68701;DHT22;55682;51.114;5.882;2024-03-23T03:52:17;9.04;80.20
68701;DHT22;55682;51.114;5.882;2024-03-23T03:54:43;9.01;80.04
68701;DHT22;55682;51.114;5.882;2024-03-23T03:57:08;8.94;80.02
68701;DHT22;55682;51.114;5.882;2024-03-23T03:59:34;8.82;80.39
68701;DHT22;55682;51.114;5.882;2024-03-23T04:01:59;8.73;80.99
68701;DHT22;55682;51.114;5.882;2024-03-23T04:04:25;8.71;81.08
68701;DHT22;55682;51.114;5.882;2024-03-23T04:07:00;8.66;81.15
68701;DHT22;55682;51.114;5.882;2024-03-23T04:09:26;8.63;81.33
68701;DHT22;55682;51.114;5.882;2024-03-23T04:11:52;8.60;81.84
68701;DHT22;55682;51.114;5.882;2024-03-23T04:14:17;8.61;82.02
68701;DHT22;55682;51.114;5.882;2024-03-23T04:16:43;8.61;81.98
68701;DHT22;55682;51.114;5.882;2024-03-23T04:19:09;8.59;81.90
68701;DHT22;55682;51.114;5.882;2024-03-23T04:21:35;8.57;81.76
68701;DHT22;55682;51.114;5.882;2024-03-23T04:24:01;8.52;81.99
68701;DHT22;55682;51.114;5.882;2024-03-23T04:26:26;8.51;82.00
68701;DHT22;55682;51.114;5.882;2024-03-23T04:28:53;8.49;82.06
68701;DHT22;55682;51.114;5.882;2024-03-23T04:31:19;8.48;82.04
68701;DHT22;55682;51.114;5.882;2024-03-23T04:33:44;8.49;81.97
68701;DHT22;55682;51.114;5.882;2024-03-23T04:36:10;8.45;81.59
68701;DHT22;55682;51.114;5.882;2024-03-23T04:38:36;8.33;81.64
68701;DHT22;55682;51.114;5.882;2024-03-23T04:41:01;8.17;82.16
68701;DHT22;55682;51.114;5.882;2024-03-23T04:43:27;8.11;82.48
68701;DHT22;55682;51.114;5.882;2024-03-23T04:45:53;8.01;82.79
68701;DHT22;55682;51.114;5.882;2024-03-23T04:48:23;7.97;83.23
68701;DHT22;55682;51.114;5.882;2024-03-23T04:50:49;7.89;83.32
68701;DHT22;55682;51.114;5.882;2024-03-23T04:53:15;7.81;83.70
68701;DHT22;55682;51.114;5.882;2024-03-23T04:55:42;7.82;83.56
68701;DHT22;55682;51.114;5.882;2024-03-23T04:58:08;7.73;83.80
68701;DHT22;55682;51.114;5.882;2024-03-23T05:00:43;7.64;84.19
68701;DHT22;55682;51.114;5.882;2024-03-23T05:03:08;7.54;84.56
68701;DHT22;55682;51.114;5.882;2024-03-23T05:05:57;7.53;84.61
68701;DHT22;55682;51.114;5.882;2024-03-23T05:08:23;7.46;84.73
68701;DHT22;55682;51.114;5.882;2024-03-23T05:10:49;7.37;85.02
68701;DHT22;55682;51.114;5.882;2024-03-23T05:13:15;7.31;85.27
68701;DHT22;55682;51.114;5.882;2024-03-23T05:15:41;7.27;85.26
68701;DHT22;55682;51.114;5.882;2024-03-23T05:18:06;7.25;85.30
68701;DHT22;55682;51.114;5.882;2024-03-23T05:20:32;7.20;85.61
68701;DHT22;55682;51.114;5.882;2024-03-23T05:22:58;7.20;85.66
68701;DHT22;55682;51.114;5.882;2024-03-23T05:25:23;7.25;85.22
68701;DHT22;55682;51.114;5.882;2024-03-23T05:27:49;7.16;85.52
68701;DHT22;55682;51.114;5.882;2024-03-23T05:30:15;7.16;85.53
68701;DHT22;55682;51.114;5.882;2024-03-23T05:32:41;7.15;85.74
68701;DHT22;55682;51.114;5.882;2024-03-23T05:35:09;7.13;85.61
68701;DHT22;55682;51.114;5.882;2024-03-23T05:37:35;7.14;85.55
68701;DHT22;55682;51.114;5.882;2024-03-23T05:40:01;7.17;85.48
68701;DHT22;55682;51.114;5.882;2024-03-23T05:42:29;7.14;85.80
68701;DHT22;55682;51.114;5.882;2024-03-23T05:44:55;7.12;85.96
68701;DHT22;55682;51.114;5.882;2024-03-23T05:47:20;7.17;85.84
68701;DHT22;55682;51.114;5.882;2024-03-23T05:49:46;7.18;85.94
68701;DHT22;55682;51.114;5.882;2024-03-23T05:52:12;7.30;85.77
68701;DHT22;55682;51.114;5.882;2024-03-23T05:54:38;7.54;85.56
68701;DHT22;55682;51.114;5.882;2024-03-23T05:57:04;7.84;85.30
68701;DHT22;55682;51.114;5.882;2024-03-23T05:59:33;8.23;84.04
68701;DHT22;55682;51.114;5.882;2024-03-23T06:01:58;8.64;82.78
68701;DHT22;55682;51.114;5.882;2024-03-23T06:04:24;9.14;81.27
68701;DHT22;55682;51.114;5.882;2024-03-23T06:06:51;9.68;79.12
68701;DHT22;55682;51.114;5.882;2024-03-23T06:09:18;10.14;76.60
68701;DHT22;55682;51.114;5.882;2024-03-23T06:11:44;10.66;74.88
68701;DHT22;55682;51.114;5.882;2024-03-23T06:14:10;11.19;73.25
68701;DHT22;55682;51.114;5.882;2024-03-23T06:16:35;11.73;71.36
68701;DHT22;55682;51.114;5.882;2024-03-23T06:19:01;12.29;68.68
68701;DHT22;55682;51.114;5.882;2024-03-23T06:21:29;12.71;67.35
68701;DHT22;55682;51.114;5.882;2024-03-23T06:23:54;13.09;65.97
68701;DHT22;55682;51.114;5.882;2024-03-23T06:26:21;13.20;64.63
68701;DHT22;55682;51.114;5.882;2024-03-23T06:28:47;12.46;63.78
68701;DHT22;55682;51.114;5.882;2024-03-23T06:31:13;11.55;66.06
68701;DHT22;55682;51.114;5.882;2024-03-23T06:33:39;10.75;68.83
68701;DHT22;55682;51.114;5.882;2024-03-23T06:36:10;10.18;70.79
68701;DHT22;55682;51.114;5.882;2024-03-23T06:38:36;10.33;73.23
68701;DHT22;55682;51.114;5.882;2024-03-23T06:41:06;11.55;71.03
68701;DHT22;55682;51.114;5.882;2024-03-23T06:43:31;12.76;63.42
68701;DHT22;55682;51.114;5.882;2024-03-23T06:45:57;13.70;60.95
68701;DHT22;55682;51.114;5.882;2024-03-23T06:48:23;14.62;57.58
68701;DHT22;55682;51.114;5.882;2024-03-23T06:50:48;15.36;53.30
68701;DHT22;55682;51.114;5.882;2024-03-23T06:53:15;15.83;51.62
68701;DHT22;55682;51.114;5.882;2024-03-23T06:55:41;16.04;50.22
68701;DHT22;55682;51.114;5.882;2024-03-23T06:58:07;15.90;49.15
68701;DHT22;55682;51.114;5.882;2024-03-23T07:00:33;16.18;48.57
68701;DHT22;55682;51.114;5.882;2024-03-23T07:02:59;16.35;46.54
68701;DHT22;55682;51.114;5.882;2024-03-23T07:05:25;16.64;46.02
68701;DHT22;55682;51.114;5.882;2024-03-23T07:07:51;17.24;45.46
68701;DHT22;55682;51.114;5.882;2024-03-23T07:10:16;17.84;42.45
68701;DHT22;55682;51.114;5.882;2024-03-23T07:12:43;17.97;42.13
68701;DHT22;55682;51.114;5.882;2024-03-23T07:15:09;18.11;41.43
68701;DHT22;55682;51.114;5.882;2024-03-23T07:17:35;18.19;39.98
68701;DHT22;55682;51.114;5.882;2024-03-23T07:20:01;18.37;41.90
68701;DHT22;55682;51.114;5.882;2024-03-23T07:22:32;18.74;40.46
68701;DHT22;55682;51.114;5.882;2024-03-23T07:25:00;19.03;40.59
68701;DHT22;55682;51.114;5.882;2024-03-23T07:27:26;19.02;40.57
68701;DHT22;55682;51.114;5.882;2024-03-23T07:29:52;19.06;40.62
68701;DHT22;55682;51.114;5.882;2024-03-23T07:32:18;19.06;40.77
68701;DHT22;55682;51.114;5.882;2024-03-23T07:34:43;19.47;40.74
68701;DHT22;55682;51.114;5.882;2024-03-23T07:37:10;19.97;39.43
68701;DHT22;55682;51.114;5.882;2024-03-23T07:39:36;19.31;39.00
68701;DHT22;55682;51.114;5.882;2024-03-23T07:42:02;18.44;43.24
68701;DHT22;55682;51.114;5.882;2024-03-23T07:44:27;19.01;42.92
68701;DHT22;55682;51.114;5.882;2024-03-23T07:46:53;19.48;41.53
68701;DHT22;55682;51.114;5.882;2024-03-23T07:49:19;18.79;41.77
68701;DHT22;55682;51.114;5.882;2024-03-23T07:51:44;17.90;44.95
68701;DHT22;55682;51.114;5.882;2024-03-23T07:54:10;17.17;46.64
68701;DHT22;55682;51.114;5.882;2024-03-23T07:56:36;16.89;49.82
68701;DHT22;55682;51.114;5.882;2024-03-23T07:59:01;17.79;47.75
68701;DHT22;55682;51.114;5.882;2024-03-23T08:01:29;18.84;46.41
68701;DHT22;55682;51.114;5.882;2024-03-23T08:03:54;19.71;43.17
68701;DHT22;55682;51.114;5.882;2024-03-23T08:06:21;20.12;42.51
68701;DHT22;55682;51.114;5.882;2024-03-23T08:08:52;19.45;41.96
68701;DHT22;55682;51.114;5.882;2024-03-23T08:11:29;18.15;44.61
68701;DHT22;55682;51.114;5.882;2024-03-23T08:13:55;17.07;46.86
68701;DHT22;55682;51.114;5.882;2024-03-23T08:16:22;16.14;49.05
68701;DHT22;55682;51.114;5.882;2024-03-23T08:18:47;15.25;51.27
68701;DHT22;55682;51.114;5.882;2024-03-23T08:21:13;14.93;53.52
68701;DHT22;55682;51.114;5.882;2024-03-23T08:23:39;15.59;53.76
68701;DHT22;55682;51.114;5.882;2024-03-23T08:26:09;16.42;51.72
68701;DHT22;55682;51.114;5.882;2024-03-23T08:28:36;17.22;49.70
68701;DHT22;55682;51.114;5.882;2024-03-23T08:31:11;17.10;47.44
68701;DHT22;55682;51.114;5.882;2024-03-23T08:33:37;17.74;49.17
68701;DHT22;55682;51.114;5.882;2024-03-23T08:36:05;17.91;45.32
68701;DHT22;55682;51.114;5.882;2024-03-23T08:38:32;17.36;45.12
68701;DHT22;55682;51.114;5.882;2024-03-23T08:43:26;16.12;47.37
68701;DHT22;55682;51.114;5.882;2024-03-23T08:45:53;15.42;48.50
68701;DHT22;55682;51.114;5.882;2024-03-23T08:48:19;15.14;49.67
68701;DHT22;55682;51.114;5.882;2024-03-23T08:51:07;16.20;50.22
68701;DHT22;55682;51.114;5.882;2024-03-23T08:53:34;16.43;47.38
68701;DHT22;55682;51.114;5.882;2024-03-23T08:56:00;16.76;45.37
68701;DHT22;55682;51.114;5.882;2024-03-23T08:58:30;17.30;45.83
68701;DHT22;55682;51.114;5.882;2024-03-23T09:01:02;17.92;44.18
68701;DHT22;55682;51.114;5.882;2024-03-23T09:03:28;18.00;43.44
68701;DHT22;55682;51.114;5.882;2024-03-23T09:05:54;18.18;42.06
68701;DHT22;55682;51.114;5.882;2024-03-23T09:08:21;18.14;41.80
68701;DHT22;55682;51.114;5.882;2024-03-23T09:10:47;17.49;41.94
68701;DHT22;55682;51.114;5.882;2024-03-23T09:13:14;16.55;43.87
68701;DHT22;55682;51.114;5.882;2024-03-23T09:15:50;16.33;46.68
68701;DHT22;55682;51.114;5.882;2024-03-23T09:18:16;15.86;44.45
68701;DHT22;55682;51.114;5.882;2024-03-23T09:20:42;15.37;46.14
68701;DHT22;55682;51.114;5.882;2024-03-23T09:23:08;16.04;46.86
68701;DHT22;55682;51.114;5.882;2024-03-23T09:25:40;17.52;42.59
68701;DHT22;55682;51.114;5.882;2024-03-23T09:28:07;17.17;40.57
68701;DHT22;55682;51.114;5.882;2024-03-23T09:30:34;16.01;42.61
68701;DHT22;55682;51.114;5.882;2024-03-23T09:33:00;15.11;45.32
68701;DHT22;55682;51.114;5.882;2024-03-23T09:35:27;15.18;47.77
68701;DHT22;55682;51.114;5.882;2024-03-23T09:37:52;16.80;46.35
68701;DHT22;55682;51.114;5.882;2024-03-23T09:40:18;18.77;40.88
68701;DHT22;55682;51.114;5.882;2024-03-23T09:42:50;20.18;39.71
68701;DHT22;55682;51.114;5.882;2024-03-23T09:45:21;21.48;36.30
68701;DHT22;55682;51.114;5.882;2024-03-23T09:47:48;22.19;34.31
68701;DHT22;55682;51.114;5.882;2024-03-23T09:50:14;21.78;33.63
68701;DHT22;55682;51.114;5.882;2024-03-23T09:52:40;20.64;34.33
68701;DHT22;55682;51.114;5.882;2024-03-23T09:55:08;19.12;36.71
68701;DHT22;55682;51.114;5.882;2024-03-23T09:57:34;17.98;39.89
68701;DHT22;55682;51.114;5.882;2024-03-23T09:59:59;17.62;42.97
68701;DHT22;55682;51.114;5.882;2024-03-23T10:02:25;18.03;41.79
68701;DHT22;55682;51.114;5.882;2024-03-23T10:04:51;17.38;41.81
68701;DHT22;55682;51.114;5.882;2024-03-23T10:07:21;16.37;43.55
68701;DHT22;55682;51.114;5.882;2024-03-23T10:09:47;15.69;45.76
68701;DHT22;55682;51.114;5.882;2024-03-23T10:12:16;15.27;47.17
68701;DHT22;55682;51.114;5.882;2024-03-23T10:14:43;14.81;48.49
68701;DHT22;55682;51.114;5.882;2024-03-23T10:19:41;14.22;49.47
68701;DHT22;55682;51.114;5.882;2024-03-23T10:22:09;13.83;49.69
68701;DHT22;55682;51.114;5.882;2024-03-23T10:24:35;13.56;50.59
68701;DHT22;55682;51.114;5.882;2024-03-23T10:27:00;13.91;51.88
68701;DHT22;55682;51.114;5.882;2024-03-23T10:29:26;15.29;52.52
68701;DHT22;55682;51.114;5.882;2024-03-23T10:32:07;17.23;48.93
68701;DHT22;55682;51.114;5.882;2024-03-23T10:34:34;18.83;44.70
68701;DHT22;55682;51.114;5.882;2024-03-23T10:37:02;20.13;42.24
68701;DHT22;55682;51.114;5.882;2024-03-23T10:39:32;21.11;39.22
68701;DHT22;55682;51.114;5.882;2024-03-23T10:42:01;21.30;37.70
68701;DHT22;55682;51.114;5.882;2024-03-23T10:44:30;21.66;37.71
68701;DHT22;55682;51.114;5.882;2024-03-23T10:47:00;21.90;36.34
68701;DHT22;55682;51.114;5.882;2024-03-23T10:49:29;21.88;36.62
68701;DHT22;55682;51.114;5.882;2024-03-23T10:52:03;22.49;35.98
68701;DHT22;55682;51.114;5.882;2024-03-23T10:54:30;21.76;35.08
68701;DHT22;55682;51.114;5.882;2024-03-23T10:57:09;20.41;36.80
68701;DHT22;55682;51.114;5.882;2024-03-23T10:59:40;18.87;38.79
68701;DHT22;55682;51.114;5.882;2024-03-23T11:02:07;17.43;41.23
68701;DHT22;55682;51.114;5.882;2024-03-23T11:04:43;16.31;43.57
68701;DHT22;55682;51.114;5.882;2024-03-23T11:09:50;14.81;48.24
68701;DHT22;55682;51.114;5.882;2024-03-23T11:14:56;13.89;50.85
68701;DHT22;55682;51.114;5.882;2024-03-23T11:17:25;13.23;53.05
68701;DHT22;55682;51.114;5.882;2024-03-23T11:25:25;11.70;56.79
68701;DHT22;55682;51.114;5.882;2024-03-23T11:27:53;11.27;58.61
68701;DHT22;55682;51.114;5.882;2024-03-23T11:30:19;11.02;58.64
68701;DHT22;55682;51.114;5.882;2024-03-23T11:32:46;10.84;58.77
68701;DHT22;55682;51.114;5.882;2024-03-23T11:35:34;10.84;58.22
68701;DHT22;55682;51.114;5.882;2024-03-23T11:38:13;10.85;57.74
68701;DHT22;55682;51.114;5.882;2024-03-23T11:40:41;10.97;57.43
68701;DHT22;55682;51.114;5.882;2024-03-23T11:43:08;11.15;57.16
68701;DHT22;55682;51.114;5.882;2024-03-23T11:45:38;11.47;56.29
68701;DHT22;55682;51.114;5.882;2024-03-23T11:48:06;11.97;55.96
68701;DHT22;55682;51.114;5.882;2024-03-23T11:50:34;12.27;54.84
68701;DHT22;55682;51.114;5.882;2024-03-23T11:55:39;12.33;55.10
68701;DHT22;55682;51.114;5.882;2024-03-23T11:58:05;12.73;54.75
68701;DHT22;55682;51.114;5.882;2024-03-23T12:00:31;13.03;52.39
68701;DHT22;55682;51.114;5.882;2024-03-23T12:03:05;13.20;51.82
68701;DHT22;55682;51.114;5.882;2024-03-23T12:05:32;13.55;52.73
68701;DHT22;55682;51.114;5.882;2024-03-23T12:08:17;14.69;50.49
68701;DHT22;55682;51.114;5.882;2024-03-23T12:10:52;15.53;48.85
68701;DHT22;55682;51.114;5.882;2024-03-23T12:13:20;16.27;46.71
68701;DHT22;55682;51.114;5.882;2024-03-23T12:15:49;16.72;44.50
68701;DHT22;55682;51.114;5.882;2024-03-23T12:18:15;16.73;44.43
68701;DHT22;55682;51.114;5.882;2024-03-23T12:20:41;16.59;45.09
68701;DHT22;55682;51.114;5.882;2024-03-23T12:23:11;16.59;44.78
68701;DHT22;55682;51.114;5.882;2024-03-23T12:25:40;16.93;44.85
68701;DHT22;55682;51.114;5.882;2024-03-23T12:28:06;17.51;44.86
68701;DHT22;55682;51.114;5.882;2024-03-23T12:30:34;18.15;42.32
68701;DHT22;55682;51.114;5.882;2024-03-23T12:33:00;18.47;42.03
68701;DHT22;55682;51.114;5.882;2024-03-23T12:35:25;18.71;41.64
68701;DHT22;55682;51.114;5.882;2024-03-23T12:37:51;18.10;40.81
68701;DHT22;55682;51.114;5.882;2024-03-23T12:40:17;17.19;42.23
68701;DHT22;55682;51.114;5.882;2024-03-23T12:42:42;16.35;43.67
68701;DHT22;55682;51.114;5.882;2024-03-23T12:45:08;15.56;45.99
68701;DHT22;55682;51.114;5.882;2024-03-23T12:47:34;14.88;47.86
68701;DHT22;55682;51.114;5.882;2024-03-23T12:50:00;14.42;50.46
68701;DHT22;55682;51.114;5.882;2024-03-23T12:52:25;13.83;51.19
68701;DHT22;55682;51.114;5.882;2024-03-23T12:54:55;13.22;52.20
68701;DHT22;55682;51.114;5.882;2024-03-23T12:57:22;13.08;53.33
68701;DHT22;55682;51.114;5.882;2024-03-23T12:59:48;13.30;53.91
68701;DHT22;55682;51.114;5.882;2024-03-23T13:02:17;13.59;53.81
68701;DHT22;55682;51.114;5.882;2024-03-23T13:04:44;13.90;53.19
68701;DHT22;55682;51.114;5.882;2024-03-23T13:07:10;14.13;51.34
68701;DHT22;55682;51.114;5.882;2024-03-23T13:09:36;14.49;49.66
68701;DHT22;55682;51.114;5.882;2024-03-23T13:12:01;14.64;47.69
68701;DHT22;55682;51.114;5.882;2024-03-23T13:14:27;14.74;47.64
68701;DHT22;55682;51.114;5.882;2024-03-23T13:16:53;14.84;47.72
68701;DHT22;55682;51.114;5.882;2024-03-23T13:19:19;15.03;47.92
68701;DHT22;55682;51.114;5.882;2024-03-23T13:21:46;15.22;46.96
68701;DHT22;55682;51.114;5.882;2024-03-23T13:24:12;14.97;46.61
68701;DHT22;55682;51.114;5.882;2024-03-23T13:26:38;14.32;49.80
68701;DHT22;55682;51.114;5.882;2024-03-23T13:29:03;13.58;52.28
68701;DHT22;55682;51.114;5.882;2024-03-23T13:31:29;13.20;54.92
68701;DHT22;55682;51.114;5.882;2024-03-23T13:33:55;13.31;57.16
68701;DHT22;55682;51.114;5.882;2024-03-23T13:36:20;13.50;56.90
68701;DHT22;55682;51.114;5.882;2024-03-23T13:38:46;13.56;56.52
68701;DHT22;55682;51.114;5.882;2024-03-23T13:41:11;13.46;56.61
68701;DHT22;55682;51.114;5.882;2024-03-23T13:43:37;13.36;57.04
68701;DHT22;55682;51.114;5.882;2024-03-23T13:46:03;13.16;56.92
68701;DHT22;55682;51.114;5.882;2024-03-23T13:48:29;12.93;56.77
68701;DHT22;55682;51.114;5.882;2024-03-23T13:51:02;12.77;57.08
68701;DHT22;55682;51.114;5.882;2024-03-23T13:53:28;12.99;58.36
68701;DHT22;55682;51.114;5.882;2024-03-23T13:55:54;13.35;58.80
68701;DHT22;55682;51.114;5.882;2024-03-23T13:58:20;13.70;58.13
68701;DHT22;55682;51.114;5.882;2024-03-23T14:00:46;14.05;57.89
68701;DHT22;55682;51.114;5.882;2024-03-23T14:03:13;14.25;56.51
68701;DHT22;55682;51.114;5.882;2024-03-23T14:05:40;14.18;54.81
68701;DHT22;55682;51.114;5.882;2024-03-23T14:08:07;13.98;54.87
68701;DHT22;55682;51.114;5.882;2024-03-23T14:10:33;13.79;54.33
68701;DHT22;55682;51.114;5.882;2024-03-23T14:12:59;13.53;54.59
68701;DHT22;55682;51.114;5.882;2024-03-23T14:15:26;13.26;55.06
68701;DHT22;55682;51.114;5.882;2024-03-23T14:17:52;13.09;54.80
68701;DHT22;55682;51.114;5.882;2024-03-23T14:20:18;12.81;54.33
68701;DHT22;55682;51.114;5.882;2024-03-23T14:22:43;12.56;55.43
68701;DHT22;55682;51.114;5.882;2024-03-23T14:25:10;12.49;55.58
68701;DHT22;55682;51.114;5.882;2024-03-23T14:27:35;12.49;56.07
68701;DHT22;55682;51.114;5.882;2024-03-23T14:30:04;12.59;55.32
68701;DHT22;55682;51.114;5.882;2024-03-23T14:32:30;12.66;54.23
68701;DHT22;55682;51.114;5.882;2024-03-23T14:35:05;12.85;53.49
68701;DHT22;55682;51.114;5.882;2024-03-23T14:37:39;13.19;53.87
68701;DHT22;55682;51.114;5.882;2024-03-23T14:40:07;13.65;53.52
68701;DHT22;55682;51.114;5.882;2024-03-23T14:42:33;13.94;51.95
68701;DHT22;55682;51.114;5.882;2024-03-23T14:44:59;14.04;51.36
68701;DHT22;55682;51.114;5.882;2024-03-23T14:47:25;14.08;51.25
68701;DHT22;55682;51.114;5.882;2024-03-23T14:49:50;14.00;51.66
68701;DHT22;55682;51.114;5.882;2024-03-23T14:52:17;13.90;51.63
68701;DHT22;55682;51.114;5.882;2024-03-23T14:54:44;13.77;52.19
68701;DHT22;55682;51.114;5.882;2024-03-23T14:57:09;13.54;51.45
68701;DHT22;55682;51.114;5.882;2024-03-23T14:59:35;13.25;51.97
68701;DHT22;55682;51.114;5.882;2024-03-23T15:02:04;12.93;52.73
68701;DHT22;55682;51.114;5.882;2024-03-23T15:04:30;12.58;54.23
68701;DHT22;55682;51.114;5.882;2024-03-23T15:06:56;12.17;56.30
68701;DHT22;55682;51.114;5.882;2024-03-23T15:09:21;11.89;57.37
68701;DHT22;55682;51.114;5.882;2024-03-23T15:11:47;11.61;58.82
68701;DHT22;55682;51.114;5.882;2024-03-23T15:14:12;11.49;59.25
68701;DHT22;55682;51.114;5.882;2024-03-23T15:16:38;11.40;59.52
68701;DHT22;55682;51.114;5.882;2024-03-23T15:19:03;11.39;60.63
68701;DHT22;55682;51.114;5.882;2024-03-23T15:21:32;11.56;61.34
68701;DHT22;55682;51.114;5.882;2024-03-23T15:23:57;11.89;62.02
68701;DHT22;55682;51.114;5.882;2024-03-23T15:26:23;12.41;61.57
68701;DHT22;55682;51.114;5.882;2024-03-23T15:28:49;12.79;59.40
68701;DHT22;55682;51.114;5.882;2024-03-23T15:31:24;13.01;57.24
68701;DHT22;55682;51.114;5.882;2024-03-23T15:33:51;13.09;56.84
68701;DHT22;55682;51.114;5.882;2024-03-23T15:36:17;13.16;56.11
68701;DHT22;55682;51.114;5.882;2024-03-23T15:38:43;13.11;55.53
68701;DHT22;55682;51.114;5.882;2024-03-23T15:41:09;13.03;54.62
68701;DHT22;55682;51.114;5.882;2024-03-23T15:43:35;12.89;54.42
68701;DHT22;55682;51.114;5.882;2024-03-23T15:46:03;12.72;55.07
68701;DHT22;55682;51.114;5.882;2024-03-23T15:48:30;12.52;55.20
68701;DHT22;55682;51.114;5.882;2024-03-23T15:51:01;12.45;54.70
68701;DHT22;55682;51.114;5.882;2024-03-23T15:53:27;12.33;54.33
68701;DHT22;55682;51.114;5.882;2024-03-23T15:55:58;12.31;53.69
68701;DHT22;55682;51.114;5.882;2024-03-23T16:02:12;12.31;52.46
68701;DHT22;55682;51.114;5.882;2024-03-23T16:04:37;12.31;51.57
68701;DHT22;55682;51.114;5.882;2024-03-23T16:07:03;12.32;50.37
68701;DHT22;55682;51.114;5.882;2024-03-23T16:09:29;12.22;50.39
68701;DHT22;55682;51.114;5.882;2024-03-23T16:11:54;12.21;50.94
68701;DHT22;55682;51.114;5.882;2024-03-23T16:14:20;12.15;51.00
68701;DHT22;55682;51.114;5.882;2024-03-23T16:16:45;12.13;50.63
68701;DHT22;55682;51.114;5.882;2024-03-23T16:19:12;12.11;50.92
68701;DHT22;55682;51.114;5.882;2024-03-23T16:21:38;12.08;51.10
68701;DHT22;55682;51.114;5.882;2024-03-23T16:24:04;11.98;51.56
68701;DHT22;55682;51.114;5.882;2024-03-23T16:26:30;11.89;51.93
68701;DHT22;55682;51.114;5.882;2024-03-23T16:28:55;11.78;53.25
68701;DHT22;55682;51.114;5.882;2024-03-23T16:31:21;11.73;54.56
68701;DHT22;55682;51.114;5.882;2024-03-23T16:33:47;11.74;55.84
68701;DHT22;55682;51.114;5.882;2024-03-23T16:36:14;11.81;56.78
68701;DHT22;55682;51.114;5.882;2024-03-23T16:38:41;11.76;57.64
68701;DHT22;55682;51.114;5.882;2024-03-23T16:41:12;11.71;55.88
68701;DHT22;55682;51.114;5.882;2024-03-23T16:43:44;11.68;54.95
68701;DHT22;55682;51.114;5.882;2024-03-23T16:46:14;11.61;53.99
68701;DHT22;55682;51.114;5.882;2024-03-23T16:48:42;11.66;53.68